Terminal Aerodrome Forecast
Issued by NWS

Home | Current Version | Previous Version | Graphics & Text | Print | Product List | Glossary On
Versions: 1 2 3 4 5 6 7 8 9 10 11 12 13 14 15 16 17 18 19 20 21
049
FTUS43 KABR 251839 AAA
TAFATY
TAF AMD
KATY 251839Z 2519/2618 30015G25KT P6SM OVC035
     FM252100 31018G26KT P6SM SCT120
     FM260200 30010KT P6SM SKC
     FM261400 31017G27KT P6SM SKC=

USA.gov is the U.S. government's official web portal to all federal, state and local government web resources and services.